createdAt,value
2019-06-07T00:00:25.903Z,46.435547
2019-06-07T00:01:08.375Z,46.435547
2019-06-07T00:02:06.909Z,46.435547
2019-06-07T00:03:10.402Z,46.435547
2019-06-07T00:04:08.870Z,46.435547
2019-06-07T00:05:08.173Z,46.435547
2019-06-07T00:06:07.690Z,46.435547
2019-06-07T00:07:08.955Z,46.459961
2019-06-07T00:08:11.625Z,46.459961
2019-06-07T00:09:08.596Z,46.459961
2019-06-07T00:10:07.520Z,46.459961
2019-06-07T00:11:08.168Z,46.459961
2019-06-07T00:12:09.452Z,46.459961
2019-06-07T00:13:07.999Z,46.459961
2019-06-07T00:14:09.133Z,46.459961
2019-06-07T00:15:11.488Z,46.459961
2019-06-07T00:16:09.303Z,46.459961
2019-06-07T00:17:08.355Z,46.459961
2019-06-07T00:18:11.016Z,46.459961
2019-06-07T00:19:08.234Z,46.459961
2019-06-07T00:20:09.241Z,46.459961
2019-06-07T00:21:08.868Z,46.459961
2019-06-07T00:22:23.496Z,46.459961
2019-06-07T00:23:09.141Z,46.459961
2019-06-07T00:24:09.307Z,46.459961
2019-06-07T00:25:10.732Z,46.459961
2019-06-07T00:26:09.194Z,46.459961
2019-06-07T00:27:10.142Z,46.459961
2019-06-07T00:28:09.320Z,46.459961
2019-06-07T00:29:09.776Z,46.459961
2019-06-07T00:30:30.980Z,46.459961
2019-06-07T00:31:09.737Z,46.459961
2019-06-07T00:32:09.856Z,46.459961
2019-06-07T00:33:10.795Z,46.459961
2019-06-07T00:34:10.661Z,46.459961
2019-06-07T00:35:10.121Z,46.459961
2019-06-07T00:36:10.603Z,46.459961
2019-06-07T00:37:11.052Z,46.459961
2019-06-07T00:38:10.481Z,46.362305
2019-06-07T00:39:11.295Z,46.362305
2019-06-07T00:40:15.987Z,46.362305
2019-06-07T00:41:10.837Z,46.380615
2019-06-07T00:42:11.382Z,46.380615
2019-06-07T00:43:14.076Z,46.380615
2019-06-07T00:44:11.103Z,46.380615
2019-06-07T00:45:11.796Z,46.380615
2019-06-07T00:46:13.220Z,46.380615
2019-06-07T00:47:11.512Z,46.380615
2019-06-07T00:48:19.390Z,46.380615
2019-06-07T00:49:12.936Z,46.380615
2019-06-07T00:50:12.111Z,46.380615
2019-06-07T00:51:12.135Z,46.380615
2019-06-07T00:52:58.420Z,46.380615
2019-06-07T00:53:15.340Z,46.380615
2019-06-07T00:54:12.836Z,46.380615
2019-06-07T00:55:14.216Z,46.380615
2019-06-07T00:56:12.516Z,46.380615
2019-06-07T00:57:12.994Z,46.380615
2019-06-07T00:58:13.517Z,46.380615
2019-06-07T00:59:14.994Z,46.380615
2019-06-07T01:00:13.053Z,46.380615
2019-06-07T01:01:13.636Z,46.380615
2019-06-07T01:02:14.509Z,46.380615
2019-06-07T01:03:13.311Z,46.380615
2019-06-07T01:04:13.755Z,46.380615
2019-06-07T01:05:15.854Z,46.380615
2019-06-07T01:06:13.604Z,46.380615
2019-06-07T01:07:13.823Z,46.380615
2019-06-07T01:08:14.774Z,46.380615
2019-06-07T01:09:13.905Z,46.380615
2019-06-07T01:10:14.447Z,46.380615
2019-06-07T01:11:14.199Z,46.380615
2019-06-07T01:12:14.705Z,46.380615
2019-06-07T01:13:15.386Z,46.380615
2019-06-07T01:14:15.054Z,46.380615
2019-06-07T01:15:16.161Z,46.380615
2019-06-07T01:16:14.588Z,46.380615
2019-06-07T01:17:27.422Z,46.380615
2019-06-07T01:19:14.837Z,46.405029
2019-06-07T01:20:14.960Z,46.405029
2019-06-07T01:21:15.711Z,46.405029
2019-06-07T01:22:16.300Z,46.405029
2019-06-07T01:23:54.161Z,46.405029
2019-06-07T01:24:16.196Z,46.307373
2019-06-07T01:25:16.354Z,46.405029
2019-06-07T01:26:17.470Z,46.307373
2019-06-07T01:27:16.986Z,46.307373
2019-06-07T01:28:17.177Z,46.307373
2019-06-07T01:29:18.145Z,46.307373
2019-06-07T01:30:16.930Z,46.307373
2019-06-07T01:31:17.626Z,46.307373
2019-06-07T01:32:17.388Z,46.307373
2019-06-07T01:33:16.909Z,46.405029
2019-06-07T01:34:17.065Z,46.405029
2019-06-07T01:35:17.135Z,46.405029
2019-06-07T01:36:18.175Z,46.405029
2019-06-07T01:37:17.419Z,46.405029
2019-06-07T01:38:17.752Z,46.405029
2019-06-07T01:39:17.345Z,46.405029
2019-06-07T01:40:17.685Z,46.405029
2019-06-07T01:41:17.945Z,46.405029
2019-06-07T01:42:18.584Z,46.405029
2019-06-07T01:43:17.562Z,46.405029
2019-06-07T01:44:18.417Z,46.405029
2019-06-07T01:45:18.306Z,46.405029
2019-06-07T01:46:16.866Z,46.405029
2019-06-07T01:47:18.371Z,46.405029
2019-06-07T01:48:19.745Z,46.405029
2019-06-07T01:49:18.138Z,46.405029
2019-06-07T01:50:17.669Z,46.405029
2019-06-07T01:51:18.864Z,46.429443
2019-06-07T01:52:17.428Z,46.429443
2019-06-07T01:53:19.374Z,46.429443
2019-06-07T01:55:19.498Z,46.429443
2019-06-07T01:56:18.825Z,46.429443
2019-06-07T01:57:33.937Z,46.429443
2019-06-07T01:58:18.092Z,46.429443
2019-06-07T01:59:18.353Z,46.429443
2019-06-07T02:00:18.289Z,46.429443
2019-06-07T02:01:19.558Z,46.429443
2019-06-07T02:02:18.563Z,46.429443
2019-06-07T02:03:19.104Z,46.429443
2019-06-07T02:04:19.974Z,46.429443
2019-06-07T02:05:19.564Z,46.429443
2019-06-07T02:06:19.070Z,46.429443
2019-06-07T02:07:20.259Z,46.429443
2019-06-07T02:08:20.372Z,46.429443
2019-06-07T02:09:19.382Z,46.429443
2019-06-07T02:10:20.286Z,46.325684
2019-06-07T02:11:20.869Z,46.325684
2019-06-07T02:12:27.818Z,46.429443
2019-06-07T02:13:19.813Z,46.429443
2019-06-07T02:14:20.366Z,46.325684
2019-06-07T02:15:21.627Z,46.429443
2019-06-07T02:16:20.196Z,46.325684
2019-06-07T02:17:20.750Z,46.325684
2019-06-07T02:18:21.708Z,46.325684
2019-06-07T02:19:20.452Z,46.325684
2019-06-07T02:20:20.899Z,46.325684
2019-06-07T02:21:21.704Z,46.325684
2019-06-07T02:22:21.764Z,46.325684
2019-06-07T02:23:21.193Z,46.325684
2019-06-07T02:24:22.139Z,46.325684
2019-06-07T02:25:38.159Z,46.325684
2019-06-07T02:26:21.228Z,46.325684
2019-06-07T02:27:21.323Z,46.325684
2019-06-07T02:28:29.691Z,46.325684
2019-06-07T02:29:21.510Z,46.325684
2019-06-07T02:30:40.023Z,46.325684
2019-06-07T02:31:22.198Z,46.228027
2019-06-07T02:32:22.244Z,46.325684
2019-06-07T02:33:24.716Z,46.228027
2019-06-07T02:34:22.091Z,46.228027
2019-06-07T02:35:23.339Z,46.228027
2019-06-07T02:36:25.381Z,46.228027
2019-06-07T02:37:22.293Z,46.228027
2019-06-07T02:38:22.991Z,46.228027
2019-06-07T02:39:23.886Z,46.325684
2019-06-07T02:40:22.586Z,46.325684
2019-06-07T02:41:23.585Z,46.325684
2019-06-07T02:42:25.999Z,46.325684
2019-06-07T02:43:22.999Z,46.325684
2019-06-07T02:44:23.892Z,46.350098
2019-06-07T02:45:24.694Z,46.325684
2019-06-07T02:46:28.730Z,46.350098
2019-06-07T02:47:23.437Z,46.350098
2019-06-07T02:48:24.398Z,46.350098
2019-06-07T02:49:25.045Z,46.350098
2019-06-07T02:50:23.730Z,46.350098
2019-06-07T02:51:24.315Z,46.350098
2019-06-07T02:52:25.992Z,46.350098
2019-06-07T02:53:25.568Z,46.350098
2019-06-07T02:54:24.404Z,46.350098
2019-06-07T02:55:25.694Z,46.350098
2019-06-07T02:56:38.899Z,46.350098
2019-06-07T02:57:25.620Z,46.350098
2019-06-07T02:58:25.892Z,46.350098
2019-06-07T02:59:46.698Z,46.350098
2019-06-07T03:00:45.433Z,46.350098
2019-06-07T03:01:25.407Z,46.350098
2019-06-07T03:02:26.408Z,46.350098
2019-06-07T03:03:25.341Z,46.350098
2019-06-07T03:04:27.082Z,46.350098
2019-06-07T03:05:25.655Z,46.350098
2019-06-07T03:06:27.925Z,46.350098
2019-06-07T03:07:28.202Z,46.350098
2019-06-07T03:08:26.728Z,46.350098
2019-06-07T03:09:26.885Z,46.350098
2019-06-07T03:10:28.485Z,46.350098
2019-06-07T03:11:26.791Z,46.350098
2019-06-07T03:12:27.100Z,46.350098
2019-06-07T03:13:28.841Z,46.350098
2019-06-07T03:14:27.179Z,46.350098
2019-06-07T03:15:35.113Z,46.350098
2019-06-07T03:16:27.268Z,46.350098
2019-06-07T03:17:27.574Z,46.350098
2019-06-07T03:18:28.964Z,46.350098
2019-06-07T03:19:27.305Z,46.350098
2019-06-07T03:20:27.986Z,46.350098
2019-06-07T03:21:28.060Z,46.350098
2019-06-07T03:22:27.653Z,46.350098
2019-06-07T03:23:26.811Z,46.350098
2019-06-07T03:24:30.007Z,46.350098
2019-06-07T03:25:26.826Z,46.350098
2019-06-07T03:26:28.302Z,46.350098
2019-06-07T03:27:35.790Z,46.374512
2019-06-07T03:28:28.123Z,46.350098
2019-06-07T03:29:28.788Z,46.374512
2019-06-07T03:30:39.673Z,46.374512
2019-06-07T03:31:28.336Z,46.374512
2019-06-07T03:32:30.159Z,46.374512
2019-06-07T03:33:27.372Z,46.374512
2019-06-07T03:34:29.603Z,46.374512
2019-06-07T03:35:28.277Z,46.374512
2019-06-07T03:36:28.365Z,46.374512
2019-06-07T03:37:27.871Z,46.374512
2019-06-07T03:38:28.168Z,46.374512
2019-06-07T03:39:28.345Z,46.374512
2019-06-07T03:40:27.759Z,46.374512
2019-06-07T03:41:29.166Z,46.374512
2019-06-07T03:42:27.790Z,46.374512
2019-06-07T03:43:27.924Z,46.374512
2019-06-07T03:44:28.482Z,46.374512
2019-06-07T03:45:28.939Z,46.374512
2019-06-07T03:46:27.944Z,46.374512
2019-06-07T03:47:29.090Z,46.374512
2019-06-07T03:48:28.790Z,46.374512
2019-06-07T03:49:28.521Z,46.374512
2019-06-07T03:50:28.994Z,46.374512
2019-06-07T03:51:28.752Z,46.374512
2019-06-07T03:52:28.146Z,46.374512
2019-06-07T03:53:29.622Z,46.374512
2019-06-07T03:54:28.149Z,46.374512
2019-06-07T03:55:28.325Z,46.374512
2019-06-07T03:56:28.882Z,46.374512
2019-06-07T03:57:29.015Z,46.374512
2019-06-07T03:58:34.488Z,46.374512
2019-06-07T03:59:28.954Z,46.374512
2019-06-07T04:00:29.468Z,46.374512
2019-06-07T04:01:28.959Z,46.374512
2019-06-07T04:02:28.538Z,46.374512
2019-06-07T04:03:35.896Z,46.374512
2019-06-07T04:04:28.436Z,46.374512
2019-06-07T04:05:29.313Z,46.374512
2019-06-07T04:06:29.480Z,46.374512
2019-06-07T04:07:29.341Z,46.374512
2019-06-07T04:08:28.942Z,46.270752
2019-06-07T04:09:29.277Z,46.270752
2019-06-07T04:10:48.147Z,46.374512
2019-06-07T04:11:28.843Z,46.374512
2019-06-07T04:12:29.043Z,46.374512
2019-06-07T04:13:30.299Z,46.374512
2019-06-07T04:14:29.671Z,46.374512
2019-06-07T04:15:28.970Z,46.270752
2019-06-07T04:16:29.471Z,46.374512
2019-06-07T04:17:31.094Z,46.374512
2019-06-07T04:18:29.148Z,46.270752
2019-06-07T04:19:29.413Z,46.374512
2019-06-07T04:20:29.986Z,46.374512
2019-06-07T04:21:30.044Z,46.270752
2019-06-07T04:22:29.365Z,46.270752
2019-06-07T04:23:31.667Z,46.374512
2019-06-07T04:24:29.285Z,46.270752
2019-06-07T04:25:29.534Z,46.270752
2019-06-07T04:26:31.311Z,46.270752
2019-06-07T04:27:29.215Z,46.270752
2019-06-07T04:29:06.836Z,46.270752
2019-06-07T04:29:36.815Z,46.270752
2019-06-07T04:30:29.874Z,46.270752
2019-06-07T04:31:29.532Z,46.270752
2019-06-07T04:32:30.177Z,46.270752
2019-06-07T04:33:29.483Z,46.270752
2019-06-07T04:34:29.834Z,46.270752
2019-06-07T04:35:31.328Z,46.270752
2019-06-07T04:36:40.239Z,46.270752
2019-06-07T04:37:29.561Z,46.270752
2019-06-07T04:38:29.907Z,46.270752
2019-06-07T04:39:30.554Z,46.270752
2019-06-07T04:40:30.602Z,46.173096
2019-06-07T04:41:29.649Z,46.270752
2019-06-07T04:42:30.584Z,46.173096
2019-06-07T04:43:30.172Z,46.173096
2019-06-07T04:44:29.730Z,46.173096
2019-06-07T04:45:36.058Z,46.173096
2019-06-07T04:46:29.748Z,46.173096
2019-06-07T04:47:30.173Z,46.173096
2019-06-07T04:48:31.197Z,46.173096
2019-06-07T04:49:30.440Z,46.173096
2019-06-07T04:50:30.852Z,46.173096
2019-06-07T04:51:30.467Z,46.173096
2019-06-07T04:52:30.373Z,46.173096
2019-06-07T04:53:30.737Z,46.173096
2019-06-07T04:54:31.389Z,46.173096
2019-06-07T04:55:29.994Z,46.173096
2019-06-07T04:56:30.626Z,46.173096
2019-06-07T04:57:30.789Z,46.173096
2019-06-07T04:58:30.358Z,46.173096
2019-06-07T05:00:03.962Z,46.173096
2019-06-07T05:01:31.058Z,46.173096
2019-06-07T05:02:30.260Z,46.173096
2019-06-07T05:03:31.202Z,46.173096
2019-06-07T05:04:31.652Z,46.173096
2019-06-07T05:05:30.275Z,46.173096
2019-06-07T05:06:30.596Z,46.173096
2019-06-07T05:07:30.869Z,46.173096
2019-06-07T05:08:31.906Z,46.173096
2019-06-07T05:09:30.688Z,46.173096
2019-06-07T05:10:31.201Z,46.173096
2019-06-07T05:11:31.917Z,46.173096
2019-06-07T05:12:30.751Z,46.173096
2019-06-07T05:13:31.324Z,46.069336
2019-06-07T05:14:31.485Z,46.173096
2019-06-07T05:15:30.672Z,46.069336
2019-06-07T05:16:31.158Z,46.173096
2019-06-07T05:17:31.658Z,46.069336
2019-06-07T05:18:30.689Z,46.069336
2019-06-07T05:19:31.117Z,46.069336
2019-06-07T05:20:30.721Z,46.069336
2019-06-07T05:21:48.961Z,46.069336
2019-06-07T05:22:31.422Z,46.069336
2019-06-07T05:24:02.277Z,46.069336
2019-06-07T05:24:31.327Z,46.069336
2019-06-07T05:25:32.131Z,46.069336
2019-06-07T05:26:31.030Z,46.069336
2019-06-07T05:27:32.535Z,46.069336
2019-06-07T05:28:30.998Z,46.069336
2019-06-07T05:29:31.363Z,46.051025
2019-06-07T05:31:31.700Z,45.947266
2019-06-07T05:32:32.812Z,45.947266
2019-06-07T05:33:31.716Z,45.947266
2019-06-07T05:34:32.688Z,46.051025
2019-06-07T05:35:31.596Z,46.051025
2019-06-07T05:36:32.009Z,46.051025
2019-06-07T05:37:32.501Z,46.051025
2019-06-07T05:38:31.968Z,46.051025
2019-06-07T05:39:32.663Z,46.051025
2019-06-07T05:40:32.894Z,46.051025
2019-06-07T05:41:32.634Z,46.051025
2019-06-07T05:42:32.629Z,46.051025
2019-06-07T05:43:34.858Z,46.051025
2019-06-07T05:44:32.608Z,46.051025
2019-06-07T05:45:32.940Z,46.051025
2019-06-07T05:46:33.695Z,46.051025
2019-06-07T05:47:32.800Z,46.051025
2019-06-07T05:48:32.849Z,45.947266
2019-06-07T05:49:33.478Z,46.051025
2019-06-07T05:50:41.276Z,45.947266
2019-06-07T05:51:33.105Z,45.947266
2019-06-07T05:52:33.830Z,45.947266
2019-06-07T05:53:33.376Z,45.947266
2019-06-07T05:54:35.014Z,45.947266
2019-06-07T05:55:33.623Z,45.947266
2019-06-07T05:56:33.840Z,45.947266
2019-06-07T05:57:36.283Z,45.947266
2019-06-07T05:58:33.831Z,45.947266
2019-06-07T05:59:34.255Z,45.947266
2019-06-07T06:00:35.034Z,45.947266
2019-06-07T06:01:59.622Z,46.051025
2019-06-07T06:02:52.145Z,46.051025
2019-06-07T06:03:34.965Z,45.947266
2019-06-07T06:04:34.421Z,45.947266
2019-06-07T06:05:38.173Z,46.026611
2019-06-07T06:06:34.622Z,45.928955
2019-06-07T06:07:35.613Z,45.928955
2019-06-07T06:08:36.510Z,45.928955
2019-06-07T06:09:35.270Z,45.928955
2019-06-07T06:10:35.291Z,45.928955
2019-06-07T06:11:44.251Z,45.928955
2019-06-07T06:12:39.028Z,45.928955
2019-06-07T06:13:35.173Z,45.928955
2019-06-07T06:14:35.836Z,45.928955
2019-06-07T06:15:45.051Z,45.928955
2019-06-07T06:16:35.537Z,45.928955
2019-06-07T06:17:37.578Z,45.928955
2019-06-07T06:18:36.663Z,45.928955
2019-06-07T06:19:37.372Z,45.928955
2019-06-07T06:21:00.711Z,45.928955
2019-06-07T06:21:37.051Z,45.928955
2019-06-07T06:22:37.980Z,45.928955
2019-06-07T06:23:39.423Z,45.928955
2019-06-07T06:24:37.580Z,45.928955
2019-06-07T06:25:38.411Z,45.928955
2019-06-07T06:26:38.209Z,45.928955
2019-06-07T06:28:37.143Z,45.928955
2019-06-07T06:29:38.633Z,45.928955
2019-06-07T06:30:36.823Z,45.928955
2019-06-07T06:31:38.508Z,45.928955
2019-06-07T06:32:42.774Z,45.928955
2019-06-07T06:33:38.228Z,45.904541
2019-06-07T06:34:39.955Z,45.904541
2019-06-07T06:35:38.521Z,45.806885
2019-06-07T06:36:37.865Z,45.806885
2019-06-07T06:37:38.820Z,45.904541
2019-06-07T06:38:38.503Z,45.806885
2019-06-07T06:39:38.090Z,45.806885
2019-06-07T06:40:38.833Z,45.806885
2019-06-07T06:41:49.275Z,45.806885
2019-06-07T06:42:38.361Z,45.806885
2019-06-07T06:43:39.106Z,45.806885
2019-06-07T06:44:40.678Z,45.806885
2019-06-07T06:45:38.732Z,45.806885
2019-06-07T06:46:42.814Z,45.806885
2019-06-07T06:47:39.019Z,45.806885
2019-06-07T06:48:40.626Z,45.806885
2019-06-07T06:49:40.334Z,45.806885
2019-06-07T06:50:39.426Z,45.806885
2019-06-07T06:51:39.977Z,45.709229
2019-06-07T06:52:40.973Z,45.709229
2019-06-07T06:53:40.347Z,45.709229
2019-06-07T06:54:44.352Z,45.709229
2019-06-07T06:55:39.960Z,45.684814
2019-06-07T06:56:40.350Z,45.684814
2019-06-07T06:57:40.558Z,45.684814
2019-06-07T06:59:21.300Z,45.684814
2019-06-07T06:59:41.676Z,45.684814
2019-06-07T07:00:44.414Z,45.587158
2019-06-07T07:01:40.911Z,45.587158
2019-06-07T07:03:21.070Z,45.587158
2019-06-07T07:03:59.922Z,45.587158
2019-06-07T07:04:42.234Z,45.587158
2019-06-07T07:05:41.410Z,45.587158
2019-06-07T07:06:41.761Z,45.587158
2019-06-07T07:07:41.308Z,45.587158
2019-06-07T07:08:41.505Z,45.483398
2019-06-07T07:09:43.218Z,45.483398
2019-06-07T07:10:41.682Z,45.483398
2019-06-07T07:11:54.966Z,45.483398
2019-06-07T07:12:41.685Z,45.483398
2019-06-07T07:13:42.180Z,45.483398
2019-06-07T07:14:42.885Z,45.483398
2019-06-07T07:15:43.195Z,45.483398
2019-06-07T07:16:42.757Z,45.483398
2019-06-07T07:17:53.558Z,45.483398
2019-06-07T07:18:42.430Z,45.483398
2019-06-07T07:19:43.043Z,45.385742
2019-06-07T07:20:43.918Z,45.385742
2019-06-07T07:21:42.685Z,45.483398
2019-06-07T07:22:44.073Z,45.385742
2019-06-07T07:24:05.315Z,45.361328
2019-06-07T07:24:42.865Z,45.361328
2019-06-07T07:25:43.412Z,45.361328
2019-06-07T07:26:45.160Z,45.385742
2019-06-07T07:27:43.058Z,45.361328
2019-06-07T07:28:43.654Z,45.361328
2019-06-07T07:29:44.422Z,45.361328
2019-06-07T07:30:43.509Z,45.361328
2019-06-07T07:31:43.605Z,45.361328
2019-06-07T07:32:45.475Z,45.361328
2019-06-07T07:34:23.605Z,45.361328
2019-06-07T07:34:45.954Z,45.361328
2019-06-07T07:36:44.721Z,45.263672
2019-06-07T07:37:46.038Z,45.263672
2019-06-07T07:38:45.501Z,45.263672
2019-06-07T07:39:45.186Z,45.263672
2019-06-07T07:42:00.778Z,45.263672
2019-06-07T07:42:45.133Z,45.263672
2019-06-07T07:43:45.581Z,45.263672
2019-06-07T07:44:44.909Z,45.263672
2019-06-07T07:45:46.655Z,45.263672
2019-06-07T07:46:44.938Z,45.263672
2019-06-07T07:48:01.694Z,45.263672
2019-06-07T07:48:44.630Z,45.263672
2019-06-07T07:49:45.307Z,45.263672
2019-06-07T07:50:45.931Z,45.263672
2019-06-07T07:51:44.923Z,45.263672
2019-06-07T07:52:45.722Z,45.263672
2019-06-07T07:53:53.046Z,45.166016
2019-06-07T07:54:45.142Z,45.166016
2019-06-07T07:55:45.634Z,45.166016
2019-06-07T07:56:45.685Z,45.166016
2019-06-07T07:57:46.511Z,45.166016
2019-06-07T07:58:46.913Z,45.166016
2019-06-07T08:00:01.410Z,45.166016
2019-06-07T08:00:53.767Z,45.166016
2019-06-07T08:01:46.720Z,45.166016
2019-06-07T08:02:48.734Z,45.166016
2019-06-07T08:03:46.725Z,45.166016
2019-06-07T08:05:16.299Z,45.166016
2019-06-07T08:05:47.539Z,45.166016
2019-06-07T08:06:47.228Z,45.141602
2019-06-07T08:07:48.314Z,45.141602
2019-06-07T08:08:47.424Z,45.141602
2019-06-07T08:09:47.964Z,45.141602
2019-06-07T08:10:48.839Z,45.141602
2019-06-07T08:11:47.660Z,45.141602
2019-06-07T08:13:01.691Z,45.141602
2019-06-07T08:13:46.824Z,45.141602
2019-06-07T08:14:48.301Z,45.141602
2019-06-07T08:15:48.137Z,45.141602
2019-06-07T08:16:48.053Z,45.141602
2019-06-07T08:17:47.799Z,45.141602
2019-06-07T08:18:49.465Z,45.141602
2019-06-07T08:19:48.018Z,45.043945
2019-06-07T08:21:08.484Z,45.043945
2019-06-07T08:21:47.842Z,45.043945
2019-06-07T08:22:48.475Z,45.043945
2019-06-07T08:23:48.134Z,45.043945
2019-06-07T08:24:50.402Z,45.043945
2019-06-07T08:25:47.673Z,45.043945
2019-06-07T08:27:10.335Z,45.043945
2019-06-07T08:27:48.024Z,45.043945
2019-06-07T08:28:48.892Z,45.043945
2019-06-07T08:30:07.691Z,44.940186
2019-06-07T08:30:52.872Z,45.043945
2019-06-07T08:31:48.870Z,44.940186
2019-06-07T08:32:51.425Z,44.940186
2019-06-07T08:33:48.718Z,44.940186
2019-06-07T08:34:49.727Z,44.940186
2019-06-07T08:36:14.945Z,44.940186
2019-06-07T08:36:49.879Z,44.940186
2019-06-07T08:38:52.806Z,44.940186
2019-06-07T08:39:50.279Z,44.940186
2019-06-07T08:40:53.583Z,44.940186
2019-06-07T08:41:56.233Z,44.940186
2019-06-07T08:43:51.261Z,44.940186
2019-06-07T08:44:51.807Z,44.940186
2019-06-07T08:45:51.126Z,44.940186
2019-06-07T08:46:52.912Z,44.940186
2019-06-07T08:47:51.562Z,44.940186
2019-06-07T08:48:51.618Z,44.940186
2019-06-07T08:49:53.370Z,44.921875
2019-06-07T08:51:52.478Z,44.921875
2019-06-07T08:52:54.628Z,44.921875
2019-06-07T08:54:05.308Z,44.921875
2019-06-07T08:54:52.324Z,44.921875
2019-06-07T08:55:52.309Z,44.921875
2019-06-07T08:56:52.660Z,44.921875
2019-06-07T08:57:54.410Z,44.921875
2019-06-07T08:58:54.867Z,44.921875
2019-06-07T08:59:53.506Z,44.921875
2019-06-07T09:00:53.492Z,44.921875
2019-06-07T09:01:54.432Z,44.921875
2019-06-07T09:02:53.096Z,44.921875
2019-06-07T09:03:54.911Z,44.921875
2019-06-07T09:04:54.594Z,44.921875
2019-06-07T09:05:54.085Z,44.824219
2019-06-07T09:07:04.681Z,44.824219
2019-06-07T09:08:53.741Z,44.824219
2019-06-07T09:09:54.867Z,44.824219
2019-06-07T09:10:53.968Z,44.824219
2019-06-07T09:11:54.624Z,44.824219
2019-06-07T09:12:54.306Z,44.824219
2019-06-07T09:13:54.412Z,44.824219
2019-06-07T09:15:02.668Z,44.824219
2019-06-07T09:15:55.864Z,44.824219
2019-06-07T09:16:55.246Z,44.824219
2019-06-07T09:18:56.005Z,44.824219
2019-06-07T09:19:56.134Z,44.824219
2019-06-07T09:20:55.560Z,44.799805
2019-06-07T09:21:57.341Z,44.799805
2019-06-07T09:22:57.690Z,44.799805
2019-06-07T09:23:57.093Z,44.799805
2019-06-07T09:26:58.214Z,44.799805
2019-06-07T09:27:59.123Z,44.799805
2019-06-07T09:28:58.342Z,44.799805
2019-06-07T09:29:57.828Z,44.799805
2019-06-07T09:30:57.753Z,44.799805
2019-06-07T09:32:00.457Z,44.799805
2019-06-07T09:32:57.220Z,44.799805
2019-06-07T09:33:57.728Z,44.799805
2019-06-07T09:34:59.985Z,44.799805
2019-06-07T09:35:58.561Z,44.799805
2019-06-07T09:36:58.027Z,44.702148
2019-06-07T09:38:12.464Z,44.702148
2019-06-07T09:38:59.408Z,44.702148
2019-06-07T09:39:58.451Z,44.702148
2019-06-07T09:40:57.968Z,44.702148
2019-06-07T09:41:58.610Z,44.702148
2019-06-07T09:43:41.918Z,44.702148
2019-06-07T09:45:01.070Z,44.702148
2019-06-07T09:45:58.637Z,44.702148
2019-06-07T09:47:59.246Z,44.702148
2019-06-07T09:49:20.644Z,44.702148
2019-06-07T09:49:59.279Z,44.702148
2019-06-07T09:51:00.818Z,44.702148
2019-06-07T09:51:57.770Z,44.702148
2019-06-07T09:53:58.420Z,44.702148
2019-06-07T09:55:19.420Z,44.702148
2019-06-07T09:55:59.322Z,44.677734
2019-06-07T09:58:03.527Z,44.677734
2019-06-07T09:59:00.254Z,44.677734
2019-06-07T09:59:57.846Z,44.677734
2019-06-07T10:00:59.952Z,44.677734
2019-06-07T10:01:59.455Z,44.677734
2019-06-07T10:02:59.963Z,44.677734
2019-06-07T10:03:58.665Z,44.677734
2019-06-07T10:04:58.791Z,44.677734
2019-06-07T10:06:00.249Z,44.677734
2019-06-07T10:10:04.564Z,44.677734
2019-06-07T10:10:20.727Z,44.677734
2019-06-07T10:10:59.186Z,44.677734
2019-06-07T10:11:59.012Z,44.677734
2019-06-07T10:13:00.165Z,44.677734
2019-06-07T10:13:59.197Z,44.677734
2019-06-07T10:14:59.402Z,44.677734
2019-06-07T10:15:59.406Z,44.677734
2019-06-07T10:16:59.567Z,44.580078
2019-06-07T10:17:59.554Z,44.580078
2019-06-07T10:18:59.808Z,44.580078
2019-06-07T10:20:00.403Z,44.580078
2019-06-07T10:20:59.958Z,44.580078
2019-06-07T10:22:00.025Z,44.677734
2019-06-07T10:23:00.071Z,44.677734
2019-06-07T10:24:00.151Z,44.677734
2019-06-07T10:25:00.477Z,44.677734
2019-06-07T10:26:00.317Z,44.677734
2019-06-07T10:27:00.351Z,44.580078
2019-06-07T10:28:00.453Z,44.561768
2019-06-07T10:29:00.581Z,44.561768
2019-06-07T10:30:00.687Z,44.561768
2019-06-07T10:31:00.797Z,44.561768
2019-06-07T10:32:00.797Z,44.561768
2019-06-07T10:33:00.830Z,44.561768
2019-06-07T10:34:00.995Z,44.561768
2019-06-07T10:35:01.313Z,44.561768
2019-06-07T10:36:01.213Z,44.561768
2019-06-07T10:37:03.683Z,44.561768
2019-06-07T10:38:01.279Z,44.561768
2019-06-07T10:39:01.467Z,44.659424
2019-06-07T10:40:01.568Z,44.659424
2019-06-07T10:41:01.631Z,44.659424
2019-06-07T10:42:01.732Z,44.659424
2019-06-07T10:43:01.687Z,44.659424
2019-06-07T10:44:01.949Z,44.659424
2019-06-07T10:45:02.923Z,44.659424
2019-06-07T10:46:02.169Z,44.659424
2019-06-07T10:47:02.475Z,44.659424
2019-06-07T10:48:02.306Z,44.659424
2019-06-07T10:49:02.467Z,44.659424
2019-06-07T10:50:02.622Z,44.659424
2019-06-07T10:51:02.816Z,44.659424
2019-06-07T10:52:04.594Z,44.659424
2019-06-07T10:53:02.993Z,44.659424
2019-06-07T10:54:09.768Z,44.659424
2019-06-07T10:55:03.289Z,44.659424
2019-06-07T10:56:03.456Z,44.659424
2019-06-07T10:57:03.472Z,44.659424
2019-06-07T10:58:03.576Z,44.659424
2019-06-07T10:59:03.763Z,44.659424
2019-06-07T11:00:03.865Z,44.659424
2019-06-07T11:01:03.934Z,44.659424
2019-06-07T11:02:04.283Z,44.659424
2019-06-07T11:03:04.495Z,44.659424
2019-06-07T11:04:04.420Z,44.659424
2019-06-07T11:05:04.582Z,44.63501
2019-06-07T11:06:04.446Z,44.659424
2019-06-07T11:07:04.952Z,44.63501
2019-06-07T11:08:04.681Z,44.63501
2019-06-07T11:09:04.632Z,44.63501
2019-06-07T11:10:09.070Z,44.63501
2019-06-07T11:11:04.778Z,44.63501
2019-06-07T11:12:05.025Z,44.63501
2019-06-07T11:13:04.929Z,44.63501
2019-06-07T11:14:05.103Z,44.63501
2019-06-07T11:15:05.260Z,44.63501
2019-06-07T11:16:05.404Z,44.63501
2019-06-07T11:17:05.620Z,44.63501
2019-06-07T11:18:06.756Z,44.63501
2019-06-07T11:19:06.725Z,44.63501
2019-06-07T11:20:06.762Z,44.63501
2019-06-07T11:21:06.753Z,44.63501
2019-06-07T11:22:06.784Z,44.63501
2019-06-07T11:23:07.024Z,44.63501
2019-06-07T11:24:06.862Z,44.63501
2019-06-07T11:25:07.645Z,44.63501
2019-06-07T11:26:06.977Z,44.63501
2019-06-07T11:27:07.701Z,44.63501
2019-06-07T11:28:07.040Z,44.63501
2019-06-07T11:29:07.199Z,44.63501
2019-06-07T11:30:07.086Z,44.63501
2019-06-07T11:31:07.251Z,44.63501
2019-06-07T11:32:07.096Z,44.63501
2019-06-07T11:33:07.145Z,44.63501
2019-06-07T11:34:07.166Z,44.63501
2019-06-07T11:35:07.218Z,44.63501
2019-06-07T11:36:07.235Z,44.63501
2019-06-07T11:37:07.695Z,44.616699
2019-06-07T11:38:07.267Z,44.616699
2019-06-07T11:39:07.308Z,44.616699
2019-06-07T11:40:16.559Z,44.616699
2019-06-07T11:41:08.329Z,44.616699
2019-06-07T11:42:06.475Z,44.616699
2019-06-07T11:43:07.428Z,44.616699
2019-06-07T11:44:07.482Z,44.616699
2019-06-07T11:45:06.542Z,44.616699
2019-06-07T11:46:07.695Z,44.519043